Погода Медведихана 2 недели

Тверская область, Россия

20 мая-02 июня
  • 20мая
    Сегодня
    +9°
    +26°
    Небольшая облачность
    ВремяПогодаТемператураВлажностьДавлениеВетер, м/сВероятность осадков
    00:00Ясно и безоблачно+12°C62 %749 мм0.6 м/с2 %
    03:00Ясно и безоблачно+9°C73 %748 мм0.0 м/с2 %
    06:00Ясно и безоблачно+12°C71 %749 мм0.4 м/с2 %
    09:00Небольшая облачность+19°C58 %749 мм1.4 м/с2 %
    12:00Небольшая облачность+24°C40 %749 мм2.0 м/с15 %
    15:00Небольшая облачность+25°C40 %749 мм1.7 м/с14 %
    18:00Небольшая облачность+23°C43 %749 мм0.9 м/с16 %
    21:00Небольшая облачность+17°C72 %749 мм0.2 м/с2 %
  • 21мая
    Вторник
    +7°
    +23°
    Практически безоблачно
    ВремяПогодаТемператураВлажностьДавлениеВетер, м/сВероятность осадков
    00:00Ясно и безоблачно+12°C87 %749 мм0.0 м/с1 %
    03:00Ясно и безоблачно+11°C94 %750 мм0.0 м/с1 %
    06:00Небольшая облачность+12°C90 %751 мм0.0 м/с4 %
    09:00Ясно и безоблачно+18°C72 %752 мм0.0 м/с6 %
    12:00Практически безоблачно+21°C54 %752 мм0.6 м/с8 %
    15:00Практически безоблачно+21°C44 %751 мм0.9 м/с17 %
    18:00Практически безоблачно+22°C41 %752 мм0.1 м/с11 %
    21:00Практически безоблачно+16°C53 %752 мм0.4 м/с2 %
  • 22мая
    Среда
    +7°
    +21°
    Ясно и безоблачно
    ВремяПогодаТемператураВлажностьДавлениеВетер, м/сВероятность осадков
    00:00Ясно и безоблачно+11°C57 %753 мм0.5 м/с2 %
    03:00Ясно и безоблачно+8°C66 %753 мм0.2 м/с2 %
    06:00Ясно и безоблачно+9°C64 %755 мм0.8 м/с2 %
    09:00Ясно и безоблачно+16°C45 %755 мм1.8 м/с2 %
    12:00Ясно и безоблачно+20°C37 %755 мм1.6 м/с2 %
    15:00Ясно и безоблачно+20°C36 %755 мм1.3 м/с2 %
    18:00Ясно и безоблачно+21°C39 %755 мм1.3 м/с2 %
    21:00Ясно и безоблачно+15°C52 %755 мм1.7 м/с2 %
  • 23мая
    Четверг
    +7°
    +21°
    Облачно с прояснениями
    ВремяПогодаТемператураВлажностьДавлениеВетер, м/сВероятность осадков
    00:00Ясно и безоблачно+10°C62 %756 мм1.0 м/с2 %
    03:00Ясно и безоблачно+7°C82 %756 мм0.5 м/с2 %
    06:00Ясно и безоблачно+9°C76 %757 мм0.1 м/с2 %
    09:00Ясно и безоблачно+17°C49 %758 мм0.8 м/с2 %
    12:00Пасмурно, сплошная облачность+20°C38 %758 мм0.2 м/с2 %
    15:00Облачно с прояснениями+20°C38 %758 мм0.0 м/с2 %
    18:00Небольшая облачность+20°C39 %758 мм0.3 м/с2 %
    21:00Облачно с прояснениями+14°C61 %757 мм0.1 м/с2 %
  • 24мая
    Пятница
    +9°
    +23°
    Практически безоблачно
    ВремяПогодаТемператураВлажностьДавлениеВетер, м/сВероятность осадков
    00:00Ясно и безоблачно+11°C78 %758 мм0.0 м/с2 %
    03:00Ясно и безоблачно+8°C85 %759 мм0.0 м/с2 %
    06:00Ясно и безоблачно+10°C74 %759 мм0.0 м/с2 %
    09:00Ясно и безоблачно+18°C51 %760 мм0.2 м/с2 %
    12:00Ясно и безоблачно+22°C38 %760 мм0.3 м/с2 %
    15:00Практически безоблачно+23°C36 %759 мм0.3 м/с2 %
    18:00Ясно и безоблачно+22°C37 %757 мм0.7 м/с2 %
    21:00Ясно и безоблачно+16°C52 %757 мм0.4 м/с2 %
Мы используем cookies
Соглашаюсь